Time;durP1;ratioP1;P1;durP2;ratioP2;P2;SDS_P1;SDS_P2;PMS_P1;PMS_P2;Temp;Humidity;BMP_temperature;BMP_pressure;BME280_temperature;BME280_humidity;BME280_pressure;Samples;Min_cycle;Max_cycle;Signal;HPM_P1;HPM_P2
2024/04/08 00:00:17;;;;;;;4.15;0.98;;;13.60;99.90;;;;;;5023952;28;20025;-86
2024/04/08 00:02:42;;;;;;;1.10;0.90;;;13.50;99.90;;;;;;5027897;28;20196;-84
2024/04/08 00:05:08;;;;;;;2.35;1.05;;;13.50;99.90;;;;;;5015707;28;20049;-86
2024/04/08 00:07:33;;;;;;;3.03;1.17;;;13.50;99.90;;;;;;5015330;28;20018;-85
2024/04/08 00:09:59;;;;;;;2.55;1.05;;;13.50;99.90;;;;;;5014452;28;20026;-84
2024/04/08 00:12:24;;;;;;;1.60;1.02;;;13.40;99.90;;;;;;5014272;28;20026;-86
2024/04/08 00:14:52;;;;;;;1.75;0.77;;;13.40;99.90;;;;;;5015905;28;20037;-85
2024/04/08 00:17:17;;;;;;;2.10;0.90;;;13.40;99.90;;;;;;5033944;28;20086;-85
2024/04/08 00:19:43;;;;;;;1.83;0.80;;;13.30;99.90;;;;;;5009996;28;20092;-86
2024/04/08 00:22:08;;;;;;;3.20;0.93;;;13.30;99.90;;;;;;5010010;28;20052;-85
2024/04/08 00:24:34;;;;;;;1.23;0.60;;;13.30;99.90;;;;;;5013643;28;20037;-84
2024/04/08 00:26:59;;;;;;;2.25;0.80;;;13.30;99.90;;;;;;5012400;28;20030;-84
2024/04/08 00:29:29;;;;;;;1.17;0.70;;;13.30;99.90;;;;;;5013442;28;20026;-85
2024/04/08 00:31:55;;;;;;;2.80;1.20;;;13.30;99.90;;;;;;5011957;28;20029;-87
2024/04/08 00:34:20;;;;;;;3.00;0.98;;;13.30;99.90;;;;;;5007572;28;20342;-84
2024/04/08 00:36:46;;;;;;;1.65;0.90;;;13.20;99.90;;;;;;5007675;28;20036;-83
2024/04/08 00:39:12;;;;;;;8.38;1.27;;;13.20;99.90;;;;;;5008555;28;20762;-85
2024/04/08 00:41:37;;;;;;;1.65;0.73;;;13.20;99.90;;;;;;5000211;28;20065;-85
2024/04/08 00:44:03;;;;;;;2.42;0.90;;;13.20;99.90;;;;;;5008452;28;20092;-85
2024/04/08 00:46:29;;;;;;;2.00;0.65;;;13.20;99.90;;;;;;5006409;28;20557;-85
2024/04/08 00:48:56;;;;;;;2.03;0.75;;;13.10;99.90;;;;;;5005150;28;20061;-85
2024/04/08 00:51:23;;;;;;;1.88;1.00;;;13.10;99.90;;;;;;5005287;28;20022;-84
2024/04/08 00:53:49;;;;;;;1.27;0.57;;;13.20;99.90;;;;;;5017295;28;20029;-84
2024/04/08 00:56:17;;;;;;;2.92;1.13;;;13.10;99.90;;;;;;5008314;28;20121;-85
2024/04/08 00:58:43;;;;;;;5.40;1.13;;;13.10;99.90;;;;;;5003687;28;20028;-85
2024/04/08 01:01:10;;;;;;;1.20;0.93;;;13.00;99.90;;;;;;5004652;28;20120;-84
2024/04/08 01:03:36;;;;;;;3.78;0.70;;;13.00;99.90;;;;;;5019195;28;20135;-85
2024/04/08 01:06:02;;;;;;;1.25;0.88;;;13.00;99.90;;;;;;5006292;28;20037;-85
2024/04/08 01:08:28;;;;;;;1.73;0.93;;;13.00;99.90;;;;;;5005737;28;20014;-85
2024/04/08 01:10:55;;;;;;;2.75;0.88;;;13.00;99.90;;;;;;5006663;28;20033;-85
2024/04/08 01:13:20;;;;;;;2.30;0.80;;;12.90;99.90;;;;;;5004957;28;20037;-86
2024/04/08 01:15:46;;;;;;;3.53;1.10;;;12.90;99.90;;;;;;5017994;28;20116;-86
2024/04/08 01:18:12;;;;;;;1.10;0.93;;;12.90;99.90;;;;;;5003515;28;20054;-86
2024/04/08 01:20:37;;;;;;;3.42;1.02;;;12.90;99.90;;;;;;5007477;28;20507;-85
2024/04/08 01:23:05;;;;;;;3.55;0.90;;;12.90;99.90;;;;;;5007942;28;20026;-85
2024/04/08 01:25:30;;;;;;;2.10;0.70;;;12.90;99.90;;;;;;5008159;28;20022;-85
2024/04/08 01:27:56;;;;;;;4.03;1.08;;;12.90;99.90;;;;;;5019105;28;20029;-85
2024/04/08 01:30:22;;;;;;;1.13;0.80;;;12.90;99.90;;;;;;5001521;28;20574;-84
2024/04/08 01:32:48;;;;;;;5.13;1.00;;;12.90;99.90;;;;;;5005451;28;20463;-85
2024/04/08 01:35:14;;;;;;;1.73;1.00;;;12.90;99.90;;;;;;5002738;28;20482;-86
2024/04/08 01:37:40;;;;;;;0.90;0.90;;;12.80;99.90;;;;;;5005731;28;20037;-86
2024/04/08 01:40:06;;;;;;;1.70;1.15;;;12.80;99.90;;;;;;5003703;28;20132;-85
2024/04/08 01:42:31;;;;;;;2.10;1.05;;;12.80;99.90;;;;;;5002891;28;20031;-86
2024/04/08 01:44:57;;;;;;;4.05;0.90;;;12.80;99.90;;;;;;5006066;28;20104;-84
2024/04/08 01:47:23;;;;;;;4.93;1.15;;;12.80;99.90;;;;;;5003998;28;20072;-85
2024/04/08 01:49:48;;;;;;;1.02;0.93;;;12.80;99.90;;;;;;5005139;28;20068;-84
2024/04/08 01:52:14;;;;;;;1.65;0.43;;;12.70;99.90;;;;;;5004472;28;20100;-85
2024/04/08 01:54:39;;;;;;;2.05;1.00;;;12.70;99.90;;;;;;5004264;28;20027;-85
2024/04/08 01:57:05;;;;;;;2.47;0.95;;;12.70;99.90;;;;;;5000881;28;20057;-85
2024/04/08 01:59:30;;;;;;;2.50;1.05;;;12.80;99.90;;;;;;5002951;28;20077;-85
2024/04/08 02:01:56;;;;;;;1.63;0.80;;;12.80;99.90;;;;;;5003710;28;20057;-85
2024/04/08 02:04:21;;;;;;;1.95;0.80;;;12.70;99.90;;;;;;5005823;28;20022;-86
2024/04/08 02:06:47;;;;;;;5.25;1.00;;;12.70;99.90;;;;;;5002666;28;20437;-85
2024/04/08 02:09:12;;;;;;;3.90;1.58;;;12.70;99.90;;;;;;5002106;28;20061;-85
2024/04/08 02:11:38;;;;;;;0.85;0.80;;;12.70;99.90;;;;;;5016231;28;20121;-85
2024/04/08 02:14:04;;;;;;;2.47;1.10;;;12.70;99.90;;;;;;5008968;28;20234;-84
2024/04/08 02:16:29;;;;;;;3.40;1.30;;;12.70;99.90;;;;;;5012142;28;20034;-84
2024/04/08 02:18:55;;;;;;;1.70;1.13;;;12.70;99.90;;;;;;5015453;28;20091;-84
2024/04/08 02:21:21;;;;;;;2.70;1.25;;;12.60;99.90;;;;;;5008415;28;20033;-84
2024/04/08 02:23:48;;;;;;;3.17;1.30;;;12.70;99.90;;;;;;5007246;28;20018;-84
2024/04/08 02:26:14;;;;;;;2.70;1.05;;;12.70;99.90;;;;;;5009238;28;20054;-85
2024/04/08 02:28:39;;;;;;;2.50;1.05;;;12.70;99.90;;;;;;5007788;28;20100;-84
2024/04/08 02:31:05;;;;;;;2.08;1.00;;;12.60;99.90;;;;;;5009249;28;20058;-84
2024/04/08 02:33:31;;;;;;;2.78;1.30;;;12.60;99.90;;;;;;5009352;28;20026;-85
2024/04/08 02:36:06;;;;;;;1.48;1.15;;;12.60;99.90;;;;;;5008895;28;20088;-85
2024/04/08 02:38:33;;;;;;;1.60;1.30;;;12.60;99.90;;;;;;5024273;28;20041;-86
2024/04/08 02:40:59;;;;;;;2.25;1.50;;;12.60;99.90;;;;;;5009594;28;20037;-84
2024/04/08 02:43:25;;;;;;;4.25;1.08;;;12.70;99.90;;;;;;5008620;28;20037;-85
2024/04/08 02:45:50;;;;;;;2.90;1.73;;;12.60;99.90;;;;;;5010494;28;20482;-86
2024/04/08 02:48:18;;;;;;;1.63;0.95;;;12.60;99.90;;;;;;5010017;28;20095;-85
2024/04/08 02:50:44;;;;;;;4.38;1.70;;;12.60;99.90;;;;;;5008573;28;20049;-85
2024/04/08 02:53:10;;;;;;;2.50;1.25;;;12.60;99.90;;;;;;5010737;28;20022;-85
2024/04/08 02:55:36;;;;;;;4.32;1.40;;;12.60;99.90;;;;;;5010817;28;20069;-85
2024/04/08 02:58:02;;;;;;;1.95;1.30;;;12.60;99.90;;;;;;5009711;28;20801;-85
2024/04/08 03:00:28;;;;;;;2.35;1.50;;;12.60;99.90;;;;;;5010609;28;20030;-84
2024/04/08 03:02:54;;;;;;;1.58;1.27;;;12.60;99.90;;;;;;5008456;28;20030;-86
2024/04/08 03:05:20;;;;;;;1.83;1.48;;;12.60;99.90;;;;;;5010733;28;20030;-85
2024/04/08 03:07:45;;;;;;;1.40;1.23;;;12.60;99.90;;;;;;5011578;28;20091;-85
2024/04/08 03:10:11;;;;;;;2.55;1.48;;;12.60;99.90;;;;;;5009046;28;20025;-85
2024/04/08 03:12:36;;;;;;;2.40;1.50;;;12.60;99.90;;;;;;5015102;28;20010;-85
2024/04/08 03:15:02;;;;;;;4.35;1.50;;;12.60;99.90;;;;;;5018998;28;20461;-85
2024/04/08 03:17:28;;;;;;;2.45;2.00;;;12.60;99.90;;;;;;5008530;28;20069;-85
2024/04/08 03:19:55;;;;;;;2.22;1.50;;;12.60;99.90;;;;;;5010168;28;20033;-85
2024/04/08 03:22:21;;;;;;;2.13;1.45;;;12.60;99.90;;;;;;5022121;28;20026;-85
2024/04/08 03:24:46;;;;;;;3.28;1.80;;;12.60;99.90;;;;;;5029939;28;20034;-86
2024/04/08 03:27:12;;;;;;;2.90;1.80;;;12.60;99.90;;;;;;5027459;28;20049;-86
2024/04/08 03:29:38;;;;;;;2.10;1.90;;;12.60;99.90;;;;;;5018606;28;20030;-86
2024/04/08 03:32:04;;;;;;;5.20;1.65;;;12.50;99.90;;;;;;5012971;28;20045;-85
2024/04/08 03:34:31;;;;;;;4.78;2.10;;;12.60;99.90;;;;;;5005359;28;20472;-85
2024/04/08 03:36:57;;;;;;;3.53;2.20;;;12.60;99.90;;;;;;5011808;28;20064;-85
2024/04/08 03:39:23;;;;;;;4.93;2.65;;;12.60;99.90;;;;;;5009041;28;20248;-85
2024/04/08 03:41:53;;;;;;;3.10;2.00;;;12.60;99.90;;;;;;5011990;28;20029;-85
2024/04/08 03:44:19;;;;;;;3.72;2.65;;;12.60;99.90;;;;;;5012871;28;20052;-86
2024/04/08 03:46:44;;;;;;;4.38;2.58;;;12.60;99.90;;;;;;5009933;28;20026;-85
2024/04/08 03:49:10;;;;;;;5.88;2.28;;;12.60;99.90;;;;;;5008458;28;20097;-85
2024/04/08 03:51:35;;;;;;;4.18;2.22;;;12.60;99.90;;;;;;5006996;28;20022;-85
2024/04/08 03:54:02;;;;;;;5.22;2.47;;;12.60;99.90;;;;;;5018755;28;20030;-85
2024/04/08 03:56:28;;;;;;;5.93;2.58;;;12.60;99.90;;;;;;5006202;28;20083;-85
2024/04/08 03:58:54;;;;;;;3.85;2.63;;;12.60;99.90;;;;;;5007844;28;20068;-85
2024/04/08 04:01:20;;;;;;;3.33;2.50;;;12.60;99.90;;;;;;5007051;28;20058;-85
2024/04/08 04:03:46;;;;;;;4.45;2.22;;;12.60;99.90;;;;;;5015081;28;20069;-86
2024/04/08 04:06:11;;;;;;;3.67;2.50;;;12.50;99.90;;;;;;5011634;28;20026;-85
2024/04/08 04:08:37;;;;;;;9.27;3.13;;;12.50;99.90;;;;;;5011258;28;20072;-85
2024/04/08 04:11:03;;;;;;;4.88;3.38;;;12.50;99.90;;;;;;5013166;28;20022;-84
2024/04/08 04:13:29;;;;;;;3.47;3.00;;;12.50;99.90;;;;;;5005213;28;20026;-85
2024/04/08 04:15:55;;;;;;;3.83;2.92;;;12.50;99.90;;;;;;5007195;28;20305;-84
2024/04/08 04:18:20;;;;;;;3.08;2.40;;;12.50;99.90;;;;;;5007714;28;20149;-85
2024/04/08 04:20:46;;;;;;;3.28;2.45;;;12.50;99.90;;;;;;5005897;28;20036;-84
2024/04/08 04:23:15;;;;;;;2.95;2.40;;;12.50;99.90;;;;;;5008557;28;20022;-85
2024/04/08 04:25:40;;;;;;;2.83;1.83;;;12.50;99.90;;;;;;5007356;28;20028;-86
2024/04/08 04:28:06;;;;;;;3.58;2.50;;;12.50;99.90;;;;;;5007129;28;20022;-84
2024/04/08 04:30:32;;;;;;;2.00;1.88;;;12.50;99.90;;;;;;5004990;28;20026;-84
2024/04/08 04:33:00;;;;;;;6.55;2.28;;;12.50;99.90;;;;;;5023417;28;20025;-84
2024/04/08 04:35:27;;;;;;;3.88;1.83;;;12.50;99.90;;;;;;5020107;28;20037;-84
2024/04/08 04:37:52;;;;;;;2.67;1.65;;;12.50;99.90;;;;;;5005859;28;20044;-85
2024/04/08 04:40:18;;;;;;;2.10;1.42;;;12.40;99.90;;;;;;5006181;28;20033;-84
2024/04/08 04:42:44;;;;;;;3.17;2.17;;;12.40;99.90;;;;;;5006404;28;20041;-85
2024/04/08 04:45:10;;;;;;;6.30;2.63;;;12.40;99.90;;;;;;5005616;28;20040;-84
2024/04/08 04:47:36;;;;;;;2.40;1.70;;;12.40;99.90;;;;;;5005016;28;20026;-84
2024/04/08 04:50:01;;;;;;;3.05;1.77;;;12.40;99.90;;;;;;5010131;28;20030;-85
2024/04/08 04:52:27;;;;;;;3.47;2.28;;;12.40;99.90;;;;;;5004605;28;20022;-85
2024/04/08 04:54:53;;;;;;;3.45;2.00;;;12.40;99.90;;;;;;5006147;28;20429;-85
2024/04/08 04:57:19;;;;;;;4.18;2.30;;;12.40;99.90;;;;;;5007421;28;20390;-86
2024/04/08 04:59:45;;;;;;;5.60;3.13;;;12.40;99.90;;;;;;5005798;28;20037;-84
2024/04/08 05:02:10;;;;;;;6.70;2.42;;;12.40;99.90;;;;;;5004792;28;20034;-85
2024/04/08 05:04:36;;;;;;;3.72;2.63;;;12.40;99.90;;;;;;5008423;28;20025;-85
2024/04/08 05:07:02;;;;;;;4.72;3.00;;;12.40;99.90;;;;;;5008263;28;20386;-84
2024/04/08 05:09:27;;;;;;;3.15;2.85;;;12.40;99.90;;;;;;5008326;28;20056;-84
2024/04/08 05:11:53;;;;;;;4.18;2.97;;;12.40;99.90;;;;;;5008084;28;20087;-85
2024/04/08 05:14:19;;;;;;;6.80;3.17;;;12.40;99.90;;;;;;5003803;28;20025;-84
2024/04/08 05:16:47;;;;;;;5.00;3.45;;;12.40;99.90;;;;;;5004370;28;20029;-84
2024/04/08 05:19:12;;;;;;;4.93;3.20;;;12.40;99.90;;;;;;5004531;28;20109;-84
2024/04/08 05:21:38;;;;;;;6.43;3.85;;;12.50;99.90;;;;;;5006085;28;20554;-84
2024/04/08 05:24:04;;;;;;;8.13;3.40;;;12.50;99.90;;;;;;5010606;28;20025;-84
2024/04/08 05:26:29;;;;;;;4.60;3.67;;;12.50;99.90;;;;;;5009586;28;20018;-84
2024/04/08 05:28:55;;;;;;;3.50;3.20;;;12.40;99.90;;;;;;5012752;28;20025;-84
2024/04/08 05:31:21;;;;;;;6.18;4.05;;;12.50;99.90;;;;;;5012164;28;20129;-85
2024/04/08 05:33:46;;;;;;;7.45;4.65;;;12.50;99.90;;;;;;5011607;28;20492;-85
2024/04/08 05:36:12;;;;;;;9.07;6.57;;;12.50;99.90;;;;;;5014484;28;20029;-85
2024/04/08 05:38:38;;;;;;;9.73;7.80;;;12.50;99.90;;;;;;5015244;28;20026;-84
2024/04/08 05:41:04;;;;;;;12.13;8.50;;;12.50;99.90;;;;;;5007837;28;20115;-86
2024/04/08 05:43:31;;;;;;;8.95;7.18;;;12.50;99.90;;;;;;5008168;28;20041;-84
2024/04/08 05:45:57;;;;;;;10.68;8.60;;;12.50;99.90;;;;;;5015147;28;20030;-85
2024/04/08 05:48:22;;;;;;;11.50;7.60;;;12.50;99.90;;;;;;5020516;28;20033;-85
2024/04/08 05:50:49;;;;;;;9.70;8.48;;;12.60;99.90;;;;;;5018811;28;20003;-84
2024/04/08 05:53:15;;;;;;;11.23;9.20;;;12.50;99.90;;;;;;5013209;28;20018;-85
2024/04/08 05:55:41;;;;;;;12.38;8.93;;;12.60;99.90;;;;;;5016478;28;20037;-86
2024/04/08 05:58:08;;;;;;;14.35;10.75;;;12.60;99.90;;;;;;5014835;28;20060;-84
2024/04/08 06:00:36;;;;;;;11.05;9.63;;;12.60;99.90;;;;;;5015061;28;20018;-85
2024/04/08 06:03:06;;;;;;;16.05;11.25;;;12.60;99.90;;;;;;5016209;28;20030;-85
2024/04/08 06:05:32;;;;;;;16.23;10.77;;;12.60;99.90;;;;;;5014337;28;20061;-84
2024/04/08 06:07:58;;;;;;;16.15;10.32;;;12.70;99.90;;;;;;5013695;28;20022;-84
2024/04/08 06:10:34;;;;;;;13.15;10.82;;;12.70;99.90;;;;;;5014242;28;20113;-84
2024/04/08 06:12:59;;;;;;;15.70;10.65;;;12.80;99.90;;;;;;5013370;28;20474;-84
2024/04/08 06:15:26;;;;;;;15.15;11.27;;;12.80;99.90;;;;;;5017441;28;20041;-85
2024/04/08 06:17:52;;;;;;;15.00;11.23;;;12.80;99.90;;;;;;5015097;28;20034;-85
2024/04/08 06:20:17;;;;;;;13.02;9.77;;;12.90;99.90;;;;;;5012025;28;20037;-84
2024/04/08 06:22:44;;;;;;;12.35;8.88;;;12.90;99.90;;;;;;5012006;28;20085;-85
2024/04/08 06:25:09;;;;;;;13.40;7.97;;;12.90;99.90;;;;;;5011318;28;20104;-85
2024/04/08 06:27:35;;;;;;;8.95;7.63;;;12.90;99.90;;;;;;5011553;28;20062;-84
2024/04/08 06:30:01;;;;;;;10.60;7.55;;;13.00;99.90;;;;;;5006754;28;20022;-85
2024/04/08 06:32:26;;;;;;;6.80;5.30;;;13.00;99.90;;;;;;5011632;28;20025;-85
2024/04/08 06:34:52;;;;;;;7.00;6.15;;;13.00;99.90;;;;;;5010330;28;20026;-84
2024/04/08 06:37:18;;;;;;;7.50;5.35;;;13.00;99.90;;;;;;5006784;28;20033;-83
2024/04/08 06:39:43;;;;;;;6.65;5.28;;;13.10;99.90;;;;;;5011738;28;20061;-84
2024/04/08 06:42:17;;;;;;;5.70;4.50;;;13.20;99.90;;;;;;5015739;28;20046;-85
2024/04/08 06:44:52;;;;;;;6.95;5.15;;;13.20;99.90;;;;;;5021900;28;20074;-84
2024/04/08 06:47:24;;;;;;;6.63;5.07;;;13.30;99.90;;;;;;5044758;28;20018;-84
2024/04/08 06:49:49;;;;;;;6.43;4.82;;;13.30;99.90;;;;;;5025743;28;20030;-85
2024/04/08 06:52:15;;;;;;;7.30;4.63;;;13.30;99.90;;;;;;5011239;28;20053;-85
2024/04/08 06:54:41;;;;;;;4.53;3.65;;;13.40;99.90;;;;;;5018093;28;20084;-82
2024/04/08 06:57:06;;;;;;;4.97;3.83;;;13.40;99.90;;;;;;5019662;28;20026;-85
2024/04/08 06:59:32;;;;;;;4.28;3.08;;;13.40;99.90;;;;;;5015744;28;20033;-86
2024/04/08 07:01:57;;;;;;;5.45;3.45;;;13.40;99.90;;;;;;5016754;28;20036;-84
2024/04/08 07:04:23;;;;;;;3.53;3.22;;;13.40;99.90;;;;;;5015231;28;20061;-84
2024/04/08 07:06:49;;;;;;;5.05;3.63;;;13.40;99.90;;;;;;5016738;28;20516;-85
2024/04/08 07:09:14;;;;;;;3.65;2.95;;;13.50;99.90;;;;;;5016988;28;20088;-84
2024/04/08 07:11:40;;;;;;;4.93;3.15;;;13.50;99.90;;;;;;5015385;28;20124;-85
2024/04/08 07:14:06;;;;;;;3.58;3.13;;;13.60;99.90;;;;;;5017032;28;20060;-84
2024/04/08 07:16:32;;;;;;;4.85;2.83;;;13.60;99.90;;;;;;5016894;28;20022;-85
2024/04/08 07:18:58;;;;;;;3.58;3.03;;;13.70;99.90;;;;;;5015988;28;20018;-83
2024/04/08 07:21:24;;;;;;;2.83;2.45;;;13.70;99.90;;;;;;5013765;28;20017;-85
2024/04/08 07:23:51;;;;;;;3.08;1.92;;;13.70;99.90;;;;;;5016670;28;20026;-85
2024/04/08 07:26:17;;;;;;;6.80;2.90;;;13.70;99.90;;;;;;5018121;28;20097;-84
2024/04/08 07:28:44;;;;;;;2.53;2.30;;;13.80;99.90;;;;;;5014778;28;20080;-83
2024/04/08 07:31:09;;;;;;;2.40;2.20;;;13.80;99.90;;;;;;5014576;28;20025;-84
2024/04/08 07:33:35;;;;;;;5.25;2.25;;;13.80;99.90;;;;;;5013621;28;20514;-84
2024/04/08 07:36:00;;;;;;;2.58;2.00;;;14.00;99.90;;;;;;5011861;28;20026;-84
2024/04/08 07:38:26;;;;;;;2.80;1.95;;;14.30;99.90;;;;;;5018916;28;20025;-86
2024/04/08 07:40:51;;;;;;;2.20;1.98;;;14.50;99.90;;;;;;5011538;28;20340;-85
2024/04/08 07:43:17;;;;;;;2.20;1.65;;;14.80;99.90;;;;;;5013991;28;20130;-84
2024/04/08 07:45:42;;;;;;;5.00;1.90;;;15.10;99.90;;;;;;5014123;28;20025;-85
2024/04/08 07:48:08;;;;;;;6.28;1.83;;;15.20;99.90;;;;;;5012633;28;20025;-84
2024/04/08 07:53:05;;;;;;;1.75;1.48;;;15.30;99.90;;;;;;5432199;26;20313;-52
2024/04/08 07:55:30;;;;;;;2.53;1.85;;;15.60;99.90;;;;;;5394997;26;20000;-53
2024/04/08 07:57:56;;;;;;;1.20;1.10;;;15.60;99.90;;;;;;5400612;26;20013;-50
2024/04/08 08:00:22;;;;;;;7.82;1.65;;;15.70;99.90;;;;;;5385512;26;20004;-52
2024/04/08 08:02:48;;;;;;;1.10;0.85;;;15.50;99.90;;;;;;5378789;26;20008;-51
2024/04/08 08:05:14;;;;;;;1.63;1.10;;;15.50;99.90;;;;;;5377497;26;20574;-51
2024/04/08 08:07:40;;;;;;;5.40;1.30;;;15.50;99.90;;;;;;5376286;26;20007;-53
2024/04/08 08:10:06;;;;;;;1.35;1.00;;;15.50;99.90;;;;;;5379731;26;20000;-52
2024/04/08 08:12:32;;;;;;;3.08;0.98;;;15.50;99.90;;;;;;5376018;26;20039;-55
2024/04/08 08:14:58;;;;;;;2.13;1.30;;;15.60;99.90;;;;;;5374628;26;20099;-55
2024/04/08 08:17:26;;;;;;;3.25;0.90;;;15.70;99.90;;;;;;5370211;26;19992;-58
2024/04/08 08:19:53;;;;;;;1.48;1.10;;;15.80;99.90;;;;;;5381565;26;20014;-55
2024/04/08 08:22:18;;;;;;;4.38;1.00;;;15.90;99.90;;;;;;5376119;26;20013;-55
2024/04/08 08:24:44;;;;;;;3.05;0.95;;;15.80;99.90;;;;;;5371480;26;20431;-53
2024/04/08 08:27:09;;;;;;;1.45;0.93;;;15.90;99.90;;;;;;5380897;26;20011;-55
2024/04/08 08:29:35;;;;;;;0.88;0.57;;;16.20;99.90;;;;;;5378626;26;20001;-57
2024/04/08 08:32:01;;;;;;;1.55;1.00;;;16.50;99.90;;;;;;5371030;26;20436;-52
2024/04/08 08:34:27;;;;;;;2.78;1.08;;;16.70;99.90;;;;;;5369465;26;20022;-54
2024/04/08 08:36:53;;;;;;;2.47;1.10;;;17.00;99.90;;;;;;5380713;26;20046;-53
2024/04/08 08:39:19;;;;;;;3.35;0.95;;;17.20;99.90;;;;;;5375744;26;20080;-56
2024/04/08 08:41:51;;;;;;;2.40;0.70;;;17.20;99.90;;;;;;5377930;26;20030;-54
2024/04/08 08:44:19;;;;;;;3.92;1.30;;;16.90;99.90;;;;;;5372590;26;19992;-54
2024/04/08 08:46:45;;;;;;;1.92;0.68;;;16.60;99.90;;;;;;5373208;26;20146;-54
2024/04/08 08:49:12;;;;;;;1.50;0.82;;;16.80;99.90;;;;;;5370713;26;20007;-56
2024/04/08 08:51:37;;;;;;;2.17;0.90;;;17.00;99.90;;;;;;5372398;26;20483;-53
2024/04/08 08:54:03;;;;;;;0.95;0.75;;;17.30;99.90;;;;;;5377538;26;20111;-52
2024/04/08 08:56:31;;;;;;;2.72;0.63;;;17.50;99.90;;;;;;5371440;26;20032;-55
2024/04/08 08:58:58;;;;;;;2.60;1.27;;;17.70;99.90;;;;;;5381707;26;20073;-55
2024/04/08 09:01:24;;;;;;;1.00;0.80;;;17.90;99.90;;;;;;5363849;26;20496;-53
2024/04/08 09:03:52;;;;;;;0.98;0.60;;;18.00;99.90;;;;;;5361092;26;19997;-49
2024/04/08 09:06:18;;;;;;;2.72;0.60;;;18.10;99.90;;;;;;5365572;26;20001;-55
2024/04/08 09:08:44;;;;;;;1.55;0.65;;;18.20;99.90;;;;;;5358028;26;19993;-53
2024/04/08 09:11:10;;;;;;;1.67;0.88;;;18.30;99.90;;;;;;5351971;26;20485;-54
2024/04/08 09:13:35;;;;;;;1.10;0.60;;;18.50;99.90;;;;;;5361499;26;19992;-54
2024/04/08 09:16:01;;;;;;;1.05;0.60;;;18.60;99.90;;;;;;5357581;26;20000;-56
2024/04/08 09:18:27;;;;;;;1.80;0.60;;;18.70;99.90;;;;;;5362047;26;20012;-54
2024/04/08 09:20:52;;;;;;;2.65;1.30;;;18.80;99.90;;;;;;5361081;26;20465;-54
2024/04/08 09:23:18;;;;;;;1.48;0.55;;;18.90;99.90;;;;;;5355206;26;19993;-52
2024/04/08 09:25:44;;;;;;;2.33;0.65;;;18.90;99.90;;;;;;5360002;26;20015;-54
2024/04/08 09:28:11;;;;;;;1.50;0.40;;;19.00;99.90;;;;;;5352862;26;20015;-56
2024/04/08 09:30:37;;;;;;;4.15;0.90;;;19.10;99.90;;;;;;5356888;26;20019;-55
2024/04/08 09:33:05;;;;;;;1.30;0.65;;;19.10;99.90;;;;;;5364937;26;20497;-52
2024/04/08 09:35:40;;;;;;;2.03;0.98;;;19.00;99.90;;;;;;5360173;26;20011;-55
2024/04/08 09:38:09;;;;;;;1.93;0.73;;;18.90;99.90;;;;;;5359695;26;19996;-54
2024/04/08 09:40:36;;;;;;;1.83;0.77;;;18.90;99.90;;;;;;5355755;26;20308;-54
2024/04/08 09:43:05;;;;;;;0.98;0.50;;;18.80;99.90;;;;;;5363764;26;20000;-52
2024/04/08 09:45:33;;;;;;;1.20;0.50;;;18.70;99.90;;;;;;5357525;26;20608;-52
2024/04/08 09:47:59;;;;;;;1.77;0.80;;;18.60;99.90;;;;;;5355065;26;20020;-51
2024/04/08 09:50:27;;;;;;;2.83;0.68;;;18.60;99.90;;;;;;5359672;26;19997;-54
2024/04/08 09:52:54;;;;;;;1.45;0.95;;;18.60;99.90;;;;;;5355405;26;20471;-52
2024/04/08 09:55:26;;;;;;;0.52;0.52;;;18.40;99.90;;;;;;5355930;26;20008;-55
2024/04/08 09:57:53;;;;;;;1.10;0.82;;;18.30;99.90;;;;;;5357076;26;20040;-55
2024/04/08 10:00:18;;;;;;;3.65;0.95;;;18.20;99.90;;;;;;5357209;26;20012;-53
2024/04/08 10:02:46;;;;;;;3.50;1.33;;;18.20;99.90;;;;;;5355391;26;19997;-55
2024/04/08 10:05:16;;;;;;;3.10;1.05;;;18.30;99.90;;;;;;5353086;26;20033;-52
2024/04/08 10:07:42;;;;;;;1.83;0.80;;;18.30;99.90;;;;;;5355851;26;19992;-54
2024/04/08 10:10:12;;;;;;;1.13;0.68;;;18.30;99.90;;;;;;5356341;26;20011;-55
2024/04/08 10:12:40;;;;;;;2.45;0.82;;;18.30;99.90;;;;;;5364579;26;19997;-54
2024/04/08 10:15:10;;;;;;;1.95;0.80;;;18.40;99.90;;;;;;5357495;26;20014;-52
2024/04/08 10:17:36;;;;;;;3.03;1.13;;;18.40;99.90;;;;;;5355034;26;19997;-55
2024/04/08 10:20:06;;;;;;;2.65;0.68;;;18.40;99.90;;;;;;5359701;26;20541;-56
2024/04/08 10:22:34;;;;;;;2.25;0.80;;;18.30;99.90;;;;;;5354187;26;20009;-56
2024/04/08 10:25:00;;;;;;;1.20;0.75;;;18.40;99.90;;;;;;5362770;26;20004;-52
2024/04/08 10:27:26;;;;;;;2.50;0.80;;;18.40;99.90;;;;;;5360315;26;20055;-55
2024/04/08 10:29:59;;;;;;;0.70;0.40;;;18.50;99.90;;;;;;5349793;26;20158;-52
2024/04/08 10:32:25;;;;;;;2.83;0.88;;;18.60;99.90;;;;;;5352527;26;19996;-57
2024/04/08 10:34:54;;;;;;;1.95;0.70;;;18.80;99.90;;;;;;5355161;26;20036;-56
2024/04/08 10:37:20;;;;;;;1.73;0.80;;;18.80;99.90;;;;;;5358273;26;20004;-54
2024/04/08 10:39:45;;;;;;;1.20;0.47;;;18.90;99.90;;;;;;5352050;26;20427;-55
2024/04/08 10:42:14;;;;;;;1.80;0.50;;;18.80;99.90;;;;;;5360410;26;20008;-57
2024/04/08 10:44:39;;;;;;;0.85;0.55;;;18.80;99.90;;;;;;5351299;26;20012;-54
2024/04/08 10:47:08;;;;;;;2.25;1.08;;;18.80;99.90;;;;;;5365969;26;20004;-58
2024/04/08 10:49:35;;;;;;;1.85;1.02;;;18.90;99.90;;;;;;5351290;26;20015;-56
2024/04/08 10:52:04;;;;;;;3.10;0.80;;;18.90;99.90;;;;;;5356067;26;20001;-54
2024/04/08 10:54:31;;;;;;;1.40;0.52;;;19.10;99.90;;;;;;5359392;26;20165;-56
2024/04/08 10:56:56;;;;;;;2.03;0.80;;;19.20;99.90;;;;;;5356578;26;20048;-56
2024/04/08 10:59:22;;;;;;;3.50;0.80;;;19.30;99.90;;;;;;5352225;26;20337;-55
2024/04/08 11:01:48;;;;;;;1.45;0.85;;;19.20;99.90;;;;;;5352719;26;20007;-55
2024/04/08 11:04:14;;;;;;;0.95;0.70;;;19.00;99.90;;;;;;5354026;26;20056;-57
2024/04/08 11:06:39;;;;;;;2.92;0.70;;;18.80;99.90;;;;;;5355801;26;20019;-56
2024/04/08 11:09:06;;;;;;;2.17;0.85;;;18.60;99.90;;;;;;5355986;26;20008;-55
2024/04/08 11:11:33;;;;;;;2.15;1.08;;;18.60;99.90;;;;;;5351895;26;20085;-58
2024/04/08 11:13:58;;;;;;;2.00;0.52;;;18.60;99.90;;;;;;5358026;26;19996;-56
2024/04/08 11:16:26;;;;;;;2.67;1.00;;;18.60;99.90;;;;;;5354978;26;20033;-55
2024/04/08 11:18:51;;;;;;;1.20;0.70;;;18.60;99.90;;;;;;5357539;26;20008;-56
2024/04/08 11:21:17;;;;;;;2.55;1.23;;;18.60;99.90;;;;;;5380544;26;20798;-55
2024/04/08 11:23:43;;;;;;;2.47;1.23;;;18.80;99.90;;;;;;5357848;26;20398;-52
2024/04/08 11:26:09;;;;;;;2.03;0.68;;;18.90;99.90;;;;;;5357130;26;20012;-55
2024/04/08 11:28:38;;;;;;;1.73;0.85;;;18.90;99.90;;;;;;5354170;26;20485;-53
2024/04/08 11:31:08;;;;;;;1.67;0.63;;;18.90;99.90;;;;;;5356222;26;20392;-55
2024/04/08 11:33:33;;;;;;;1.63;1.02;;;18.90;99.90;;;;;;5357536;26;20010;-56
2024/04/08 11:35:59;;;;;;;3.63;0.80;;;18.90;99.90;;;;;;5355644;26;20356;-53
2024/04/08 11:38:25;;;;;;;1.98;0.70;;;19.00;99.90;;;;;;5347823;26;20365;-55
2024/04/08 11:40:52;;;;;;;1.10;0.82;;;18.90;99.90;;;;;;5354876;26;20000;-54
2024/04/08 11:43:17;;;;;;;4.68;0.98;;;18.80;99.90;;;;;;5773272;21;20001;-50
2024/04/08 11:45:43;;;;;;;1.98;0.80;;;18.80;99.90;;;;;;5331115;26;20491;-55
2024/04/08 11:48:09;;;;;;;0.63;0.60;;;18.70;99.90;;;;;;5330521;26;20016;-49
2024/04/08 11:50:34;;;;;;;2.00;0.77;;;18.80;99.90;;;;;;5329981;26;20005;-50
2024/04/08 11:53:00;;;;;;;1.08;0.88;;;18.80;99.90;;;;;;5330786;26;20001;-52
2024/04/08 11:55:25;;;;;;;3.15;0.70;;;18.90;99.90;;;;;;5331872;26;20000;-50
2024/04/08 11:57:51;;;;;;;0.65;0.65;;;19.10;99.90;;;;;;5327142;26;20020;-47
2024/04/08 12:00:20;;;;;;;2.45;1.00;;;19.30;99.90;;;;;;5338476;26;20462;-50
2024/04/08 12:02:49;;;;;;;1.02;0.68;;;19.40;99.90;;;;;;5324251;26;20045;-48
2024/04/08 12:05:16;;;;;;;1.73;1.10;;;19.50;99.90;;;;;;5335475;26;19996;-49
2024/04/08 12:07:42;;;;;;;1.20;0.52;;;19.50;99.90;;;;;;5326389;26;20001;-50
2024/04/08 12:10:09;;;;;;;0.98;0.55;;;19.60;99.90;;;;;;5335713;26;19996;-49
2024/04/08 12:12:36;;;;;;;1.15;0.60;;;19.50;99.90;;;;;;5328205;26;20078;-53
2024/04/08 12:15:04;;;;;;;2.03;1.05;;;19.30;99.90;;;;;;5329091;26;20546;-50
2024/04/08 12:17:30;;;;;;;4.45;1.00;;;19.20;99.90;;;;;;5332638;26;20015;-46
2024/04/08 12:19:55;;;;;;;2.17;0.70;;;19.10;99.90;;;;;;5328778;26;19997;-50
2024/04/08 12:22:21;;;;;;;2.05;0.70;;;19.00;99.90;;;;;;5307325;26;20016;-49
2024/04/08 12:24:46;;;;;;;2.85;0.70;;;19.10;99.90;;;;;;5298980;26;20005;-51
2024/04/08 12:27:12;;;;;;;1.95;0.60;;;19.10;99.90;;;;;;5327568;26;20019;-47
2024/04/08 12:29:38;;;;;;;2.05;0.73;;;19.20;99.90;;;;;;5327982;26;20015;-50
2024/04/08 12:32:03;;;;;;;2.03;0.70;;;19.30;99.90;;;;;;5333501;26;20020;-52
2024/04/08 12:34:29;;;;;;;0.85;0.70;;;19.30;99.90;;;;;;5331392;26;20001;-50
2024/04/08 12:36:55;;;;;;;1.23;0.70;;;19.20;99.90;;;;;;5330857;26;20001;-52
2024/04/08 12:39:20;;;;;;;0.70;0.52;;;19.30;99.90;;;;;;5328498;26;20001;-53
2024/04/08 12:41:46;;;;;;;1.95;0.77;;;19.20;99.90;;;;;;5330562;26;20675;-48